Time;durP1;ratioP1;P1;durP2;ratioP2;P2;SDS_P1;SDS_P2;PMS_P1;PMS_P2;Temp;Humidity;BMP_temperature;BMP_pressure;BME280_temperature;BME280_humidity;BME280_pressure;Samples;Min_cycle;Max_cycle;Signal;HPM_P1;HPM_P2
2023/07/21 00:00:18;;;;;;;7.25;4.40;;;15.10;9.80;;;;;;4955984;28;20472;-66
2023/07/21 00:02:45;;;;;;;6.97;4.00;;;14.40;1.00;;;;;;4961657;28;20039;-66
2023/07/21 00:05:11;;;;;;;8.07;4.55;;;14.70;20.30;;;;;;4963750;28;20124;-66
2023/07/21 00:07:37;;;;;;;7.40;4.63;;;15.20;20.30;;;;;;4972291;28;20045;-66
2023/07/21 00:10:08;;;;;;;6.75;4.38;;;14.70;22.70;;;;;;4965605;28;20042;-66
2023/07/21 00:12:40;;;;;;;8.98;5.07;;;15.20;32.20;;;;;;4961889;28;20180;-66
2023/07/21 00:15:06;;;;;;;8.30;4.57;;;14.60;37.10;;;;;;4970035;28;20054;-66
2023/07/21 00:17:35;;;;;;;8.75;4.53;;;14.60;35.90;;;;;;4969481;28;20050;-66
2023/07/21 00:20:10;;;;;;;8.07;4.80;;;14.80;64.70;;;;;;4988373;28;20088;-66
2023/07/21 00:22:40;;;;;;;10.05;5.53;;;14.80;88.70;;;;;;4970099;28;20112;-66
2023/07/21 00:25:07;;;;;;;7.88;4.93;;;14.70;72.80;;;;;;4987625;28;20523;-66
2023/07/21 00:27:35;;;;;;;11.52;4.57;;;14.40;72.80;;;;;;4944199;28;20075;-66
2023/07/21 00:30:01;;;;;;;7.47;4.97;;;14.30;89.40;;;;;;4978378;28;20042;-66
2023/07/21 00:32:26;;;;;;;9.90;4.70;;;14.70;99.90;;;;;;4964110;28;20041;-66
2023/07/21 00:34:52;;;;;;;7.88;4.97;;;14.50;99.90;;;;;;4970984;28;20508;-67
2023/07/21 00:37:18;;;;;;;9.63;4.95;;;14.70;99.90;;;;;;4959481;28;20039;-66
2023/07/21 00:39:44;;;;;;;8.82;4.82;;;14.60;99.90;;;;;;4959158;28;20097;-66
2023/07/21 00:42:13;;;;;;;9.00;4.68;;;15.20;99.90;;;;;;4971098;28;20179;-66
2023/07/21 00:44:39;;;;;;;8.05;4.75;;;14.60;99.90;;;;;;4964947;28;20039;-66
2023/07/21 00:47:05;;;;;;;7.97;4.10;;;14.90;99.90;;;;;;4957898;28;20035;-66
2023/07/21 00:49:33;;;;;;;8.93;4.57;;;14.80;99.90;;;;;;4964983;28;20093;-66
2023/07/21 00:51:58;;;;;;;7.22;4.05;;;14.80;99.90;;;;;;4970426;28;20072;-66
2023/07/21 00:54:25;;;;;;;6.90;4.07;;;;;;;;;;4973016;28;20034;-66
2023/07/21 00:56:51;;;;;;;7.10;4.13;;;14.80;99.90;;;;;;4963650;28;20093;-67
2023/07/21 00:59:17;;;;;;;9.82;4.55;;;14.00;99.90;;;;;;4968230;28;20536;-67
2023/07/21 01:01:43;;;;;;;9.15;4.43;;;14.70;99.90;;;;;;4950393;28;20174;-66
2023/07/21 01:04:09;;;;;;;9.48;4.43;;;14.10;99.90;;;;;;4958355;28;20039;-66
2023/07/21 01:06:37;;;;;;;7.50;4.38;;;14.50;99.40;;;;;;4971080;28;20501;-67
2023/07/21 01:09:06;;;;;;;6.90;4.13;;;14.50;99.90;;;;;;4949196;28;20038;-67
2023/07/21 01:11:33;;;;;;;9.27;4.20;;;14.60;96.10;;;;;;4966342;28;20036;-67
2023/07/21 01:14:03;;;;;;;9.30;4.53;;;14.90;99.90;;;;;;4968809;28;20426;-67
2023/07/21 01:16:32;;;;;;;7.80;4.50;;;13.80;99.90;;;;;;4943837;28;20496;-66
2023/07/21 01:18:59;;;;;;;7.82;4.65;;;14.50;99.90;;;;;;4970775;28;20090;-66
2023/07/21 01:21:37;;;;;;;8.63;4.90;;;14.90;99.90;;;;;;4958839;28;20074;-66
2023/07/21 01:24:10;;;;;;;10.20;4.80;;;;;;;;;;4969447;28;20043;-66
2023/07/21 01:26:39;;;;;;;7.57;4.25;;;14.70;99.90;;;;;;4965983;28;20485;-66
2023/07/21 01:29:08;;;;;;;12.60;4.78;;;14.40;99.90;;;;;;4959658;28;20043;-66
2023/07/21 01:31:35;;;;;;;9.80;4.53;;;14.60;99.90;;;;;;4964929;28;20501;-66
2023/07/21 01:34:02;;;;;;;7.53;4.38;;;14.70;99.90;;;;;;4958816;28;20043;-67
2023/07/21 01:36:30;;;;;;;9.23;4.53;;;14.60;99.90;;;;;;4978919;28;20074;-66
2023/07/21 01:38:57;;;;;;;6.93;4.25;;;14.50;99.90;;;;;;4966670;28;20437;-66
2023/07/21 01:41:24;;;;;;;7.53;4.07;;;14.40;99.90;;;;;;4960832;28;20438;-67
2023/07/21 01:43:53;;;;;;;11.02;4.80;;;14.20;99.90;;;;;;4965747;28;20054;-66
2023/07/21 01:46:19;;;;;;;7.13;4.10;;;14.00;99.90;;;;;;4969354;28;20082;-66
2023/07/21 01:48:46;;;;;;;9.48;4.38;;;14.20;99.90;;;;;;4968331;28;20069;-66
2023/07/21 01:51:18;;;;;;;11.77;4.47;;;14.30;99.90;;;;;;4970662;28;20397;-66
2023/07/21 01:53:49;;;;;;;8.20;4.18;;;14.10;99.90;;;;;;4954440;28;20108;-67
2023/07/21 01:56:30;;;;;;;8.00;4.32;;;13.70;99.90;;;;;;4963602;28;20038;-66
2023/07/21 01:59:02;;;;;;;10.10;4.38;;;14.20;99.90;;;;;;4970816;28;20038;-66
2023/07/21 02:01:29;;;;;;;7.70;4.50;;;14.50;99.90;;;;;;4970812;28;20043;-67
2023/07/21 02:03:54;;;;;;;7.93;4.50;;;13.60;99.90;;;;;;4966070;28;20046;-66
2023/07/21 02:06:20;;;;;;;7.93;4.30;;;14.10;99.90;;;;;;4959393;28;20393;-66
2023/07/21 02:08:46;;;;;;;9.25;4.20;;;14.60;99.90;;;;;;4972941;28;20090;-66
2023/07/21 02:11:12;;;;;;;7.55;4.05;;;14.20;99.90;;;;;;4961931;28;20046;-66
2023/07/21 02:13:39;;;;;;;8.35;3.92;;;13.40;99.90;;;;;;4965887;28;20039;-66
2023/07/21 02:16:05;;;;;;;8.85;4.72;;;;;;;;;;4969420;28;20409;-66
2023/07/21 02:18:34;;;;;;;7.40;3.92;;;14.30;99.90;;;;;;4970062;28;20125;-66
2023/07/21 02:21:04;;;;;;;8.15;4.45;;;14.10;99.90;;;;;;4964726;28;20538;-66
2023/07/21 02:23:31;;;;;;;8.02;3.92;;;14.10;99.90;;;;;;4959016;28;20165;-66
2023/07/21 02:25:58;;;;;;;7.57;3.83;;;14.30;99.90;;;;;;4969363;28;20039;-66
2023/07/21 02:28:24;;;;;;;7.60;3.60;;;14.40;99.90;;;;;;4960201;28;20054;-66
2023/07/21 02:31:03;;;;;;;7.25;3.80;;;;;;;;;;4957122;28;20047;-66
2023/07/21 02:33:33;;;;;;;7.13;3.75;;;14.00;99.90;;;;;;4970028;28;20112;-66
2023/07/21 02:36:00;;;;;;;7.45;4.25;;;;;;;;;;4963991;28;20039;-66
2023/07/21 02:38:27;;;;;;;8.65;3.60;;;14.10;99.90;;;;;;4969822;28;20041;-66
2023/07/21 02:40:53;;;;;;;8.10;3.42;;;14.00;99.90;;;;;;4971566;28;20045;-66
2023/07/21 02:43:19;;;;;;;7.43;3.28;;;14.00;99.90;;;;;;4961674;28;20042;-66
2023/07/21 02:45:52;;;;;;;6.93;3.30;;;14.20;99.90;;;;;;4948897;28;20626;-66
2023/07/21 02:48:19;;;;;;;8.95;3.88;;;14.70;99.90;;;;;;4961621;28;20060;-66
2023/07/21 02:50:49;;;;;;;6.63;3.90;;;13.40;99.90;;;;;;4954855;28;20102;-66
2023/07/21 02:53:16;;;;;;;7.05;3.47;;;14.10;99.90;;;;;;4960147;28;20436;-66
2023/07/21 02:55:43;;;;;;;7.13;3.08;;;14.10;99.90;;;;;;4956191;28;20484;-66
2023/07/21 02:58:10;;;;;;;10.55;3.42;;;13.60;99.90;;;;;;4943432;28;20049;-66
2023/07/21 03:00:36;;;;;;;9.07;3.70;;;13.70;99.90;;;;;;4972930;28;20043;-66
2023/07/21 03:03:03;;;;;;;7.35;3.33;;;14.50;99.90;;;;;;4967565;28;20405;-66
2023/07/21 03:05:29;;;;;;;7.10;3.20;;;14.10;99.90;;;;;;4962327;28;20127;-66
2023/07/21 03:07:59;;;;;;;7.35;3.13;;;;;;;;;;4965907;28;20046;-66
2023/07/21 03:10:25;;;;;;;8.40;3.75;;;14.40;99.90;;;;;;4978857;28;20044;-66
2023/07/21 03:12:51;;;;;;;7.13;3.90;;;14.50;99.90;;;;;;4967821;28;20051;-66
2023/07/21 03:15:16;;;;;;;9.27;4.38;;;13.80;99.90;;;;;;4973390;28;20046;-66
2023/07/21 03:17:42;;;;;;;8.77;4.55;;;13.50;99.90;;;;;;4966570;28;20525;-66
2023/07/21 03:20:12;;;;;;;6.93;4.18;;;13.90;99.90;;;;;;4975025;28;20408;-66
2023/07/21 03:22:38;;;;;;;7.50;3.97;;;14.10;99.90;;;;;;4994463;28;20398;-66
2023/07/21 03:25:06;;;;;;;7.60;4.40;;;14.00;99.90;;;;;;4967797;28;20111;-66
2023/07/21 03:27:33;;;;;;;7.57;4.03;;;13.50;99.90;;;;;;4963804;28;20043;-66
2023/07/21 03:29:58;;;;;;;7.75;3.80;;;13.50;99.90;;;;;;4969721;28;20467;-66
2023/07/21 03:32:24;;;;;;;7.50;4.32;;;13.60;99.90;;;;;;4973468;28;20034;-66
2023/07/21 03:34:51;;;;;;;7.88;4.05;;;13.50;99.90;;;;;;4971570;28;20078;-66
2023/07/21 03:37:16;;;;;;;8.77;4.22;;;13.30;99.90;;;;;;4962443;28;20327;-66
2023/07/21 03:39:45;;;;;;;6.95;3.67;;;13.50;99.90;;;;;;4966573;28;20041;-66
2023/07/21 03:42:11;;;;;;;9.18;3.97;;;13.60;99.90;;;;;;4961313;28;20046;-66
2023/07/21 03:44:36;;;;;;;8.45;4.10;;;13.40;99.90;;;;;;4962021;28;20039;-66
2023/07/21 03:47:02;;;;;;;6.57;3.83;;;13.50;99.90;;;;;;4969662;28;20441;-66
2023/07/21 03:49:28;;;;;;;8.68;4.30;;;13.60;99.90;;;;;;4945141;28;20047;-66
2023/07/21 03:51:53;;;;;;;11.18;4.90;;;13.80;99.90;;;;;;4961534;28;20054;-66
2023/07/21 03:54:20;;;;;;;8.15;4.28;;;;;;;;;;4961841;28;20046;-66
2023/07/21 03:56:45;;;;;;;8.23;4.30;;;13.10;99.90;;;;;;4962652;28;20405;-66
2023/07/21 03:59:11;;;;;;;8.50;4.53;;;13.50;99.90;;;;;;4958483;28;20050;-66
2023/07/21 04:01:37;;;;;;;8.55;4.82;;;13.60;99.90;;;;;;4972453;28;20393;-66
2023/07/21 04:04:03;;;;;;;10.10;5.47;;;13.70;99.90;;;;;;4968515;28;20053;-66
2023/07/21 04:06:28;;;;;;;8.77;5.07;;;13.70;99.90;;;;;;4980933;28;20054;-66
2023/07/21 04:08:54;;;;;;;8.32;5.05;;;13.40;99.90;;;;;;4972773;28;20054;-66
2023/07/21 04:11:20;;;;;;;9.40;5.30;;;13.30;99.90;;;;;;4972200;28;20047;-66
2023/07/21 04:13:46;;;;;;;8.93;5.05;;;13.20;99.90;;;;;;4965509;28;20575;-66
2023/07/21 04:16:11;;;;;;;9.20;5.28;;;14.20;99.90;;;;;;4966669;28;20093;-66
2023/07/21 04:18:40;;;;;;;9.95;5.30;;;14.30;99.90;;;;;;4961834;28;20054;-66
2023/07/21 04:21:06;;;;;;;10.20;5.68;;;14.00;99.90;;;;;;4969367;28;20083;-66
2023/07/21 04:23:32;;;;;;;9.15;4.80;;;14.00;99.90;;;;;;4969681;28;20038;-66
2023/07/21 04:25:58;;;;;;;10.32;5.43;;;14.30;99.90;;;;;;4961208;28;20043;-66
2023/07/21 04:28:23;;;;;;;10.07;6.15;;;13.40;99.90;;;;;;4979868;28;20049;-66
2023/07/21 04:30:56;;;;;;;8.73;5.45;;;13.70;99.90;;;;;;4962648;28;20456;-66
2023/07/21 04:33:22;;;;;;;9.20;5.50;;;14.00;99.90;;;;;;4971765;28;20042;-66
2023/07/21 04:35:48;;;;;;;9.45;5.50;;;14.50;99.90;;;;;;4971156;28;20045;-66
2023/07/21 04:38:14;;;;;;;8.68;5.35;;;14.60;99.90;;;;;;4972000;28;20046;-66
2023/07/21 04:40:46;;;;;;;8.43;5.55;;;;;;;;;;4969959;28;20038;-66
2023/07/21 04:43:12;;;;;;;11.52;5.57;;;;;;;;;;4959598;28;20043;-66
2023/07/21 04:45:42;;;;;;;9.13;4.90;;;14.70;99.90;;;;;;4970747;28;20042;-66
2023/07/21 04:48:08;;;;;;;10.68;5.85;;;14.10;99.90;;;;;;4968362;28;20652;-66
2023/07/21 04:50:33;;;;;;;9.25;5.53;;;14.80;99.90;;;;;;4969052;28;20041;-66
2023/07/21 04:53:01;;;;;;;8.90;4.90;;;14.20;99.90;;;;;;4970095;28;20090;-65
2023/07/21 04:55:27;;;;;;;10.07;5.22;;;14.40;99.90;;;;;;4971436;28;20046;-65
2023/07/21 04:57:53;;;;;;;10.73;5.15;;;14.20;99.90;;;;;;4970292;28;20035;-65
2023/07/21 05:00:19;;;;;;;9.23;4.97;;;13.70;99.90;;;;;;4969567;28;20544;-65
2023/07/21 05:02:45;;;;;;;7.93;4.45;;;14.40;99.90;;;;;;4971441;28;20097;-65
2023/07/21 05:05:11;;;;;;;9.90;5.40;;;14.20;99.90;;;;;;4971346;28;20086;-65
2023/07/21 05:07:37;;;;;;;9.27;4.70;;;13.70;99.90;;;;;;4964298;28;20046;-65
2023/07/21 05:10:03;;;;;;;10.88;4.95;;;14.40;99.90;;;;;;4968922;28;20035;-65
2023/07/21 05:12:29;;;;;;;9.93;5.13;;;14.40;99.90;;;;;;4962890;28;20089;-65
2023/07/21 05:14:57;;;;;;;9.10;5.43;;;;;;;;;;4956991;28;20039;-65
2023/07/21 05:17:22;;;;;;;11.55;5.20;;;14.40;99.90;;;;;;4981605;28;20039;-65
2023/07/21 05:19:48;;;;;;;10.38;5.43;;;14.70;99.90;;;;;;4954938;28;20039;-65
2023/07/21 05:22:14;;;;;;;8.43;4.97;;;14.60;99.90;;;;;;4970013;28;20077;-65
2023/07/21 05:24:39;;;;;;;11.27;6.18;;;14.60;99.90;;;;;;4965335;28;20201;-65
2023/07/21 05:27:06;;;;;;;8.68;5.18;;;14.70;99.90;;;;;;4969942;28;20039;-65
2023/07/21 05:29:33;;;;;;;11.50;5.90;;;14.90;99.90;;;;;;4971327;28;20043;-65
2023/07/21 05:32:00;;;;;;;9.25;4.95;;;14.70;99.90;;;;;;4980084;28;20046;-65
2023/07/21 05:34:26;;;;;;;9.40;5.28;;;13.90;99.90;;;;;;4959184;28;20045;-65
2023/07/21 05:36:51;;;;;;;9.27;4.60;;;14.60;99.90;;;;;;4975279;28;20047;-65
2023/07/21 05:39:17;;;;;;;9.27;5.03;;;14.70;99.90;;;;;;4968239;28;20424;-65
2023/07/21 05:41:43;;;;;;;8.60;4.88;;;14.70;99.90;;;;;;4969768;28;20533;-65
2023/07/21 05:44:09;;;;;;;7.95;4.53;;;14.60;99.90;;;;;;4959593;28;20042;-65
2023/07/21 05:46:38;;;;;;;8.43;4.93;;;14.60;99.90;;;;;;4966685;28;20409;-65
2023/07/21 05:49:05;;;;;;;10.45;5.80;;;14.20;99.90;;;;;;4973006;28;20062;-65
2023/07/21 05:51:32;;;;;;;9.45;5.32;;;14.90;99.90;;;;;;4969676;28;20039;-65
2023/07/21 05:53:57;;;;;;;8.55;5.28;;;14.60;99.90;;;;;;4971188;28;20522;-65
2023/07/21 05:56:23;;;;;;;9.60;5.57;;;15.30;99.90;;;;;;4974249;28;20046;-65
2023/07/21 05:58:49;;;;;;;8.27;5.40;;;14.90;99.90;;;;;;4974393;28;20496;-70
2023/07/21 06:01:14;;;;;;;10.43;5.30;;;14.90;99.90;;;;;;4968092;28;20042;-72
2023/07/21 06:03:40;;;;;;;10.73;6.07;;;15.20;99.90;;;;;;4966243;28;20108;-68
2023/07/21 06:06:06;;;;;;;8.88;5.43;;;15.40;99.90;;;;;;4949022;28;20552;-67
2023/07/21 06:08:32;;;;;;;10.57;5.28;;;15.80;99.90;;;;;;4964973;28;20404;-65
2023/07/21 06:10:59;;;;;;;12.07;5.85;;;15.30;99.90;;;;;;4966866;28;20069;-66
2023/07/21 06:13:25;;;;;;;8.85;5.00;;;15.20;99.90;;;;;;4966967;28;20050;-66
2023/07/21 06:15:50;;;;;;;7.63;4.40;;;15.60;99.90;;;;;;4967145;28;20038;-67
2023/07/21 06:18:16;;;;;;;8.48;4.00;;;15.50;99.90;;;;;;4965976;28;20074;-68
2023/07/21 06:20:42;;;;;;;9.40;4.95;;;16.50;99.90;;;;;;4965068;28;20034;-67
2023/07/21 06:23:07;;;;;;;7.85;3.85;;;16.70;99.90;;;;;;4966642;28;20050;-66
2023/07/21 06:25:33;;;;;;;8.02;4.32;;;16.40;99.90;;;;;;4965397;28;20031;-67
2023/07/21 06:27:59;;;;;;;7.38;3.80;;;16.60;99.90;;;;;;4965522;28;20522;-66
2023/07/21 06:30:24;;;;;;;9.10;4.05;;;16.40;99.90;;;;;;4965726;28;20516;-66
2023/07/21 06:32:50;;;;;;;7.78;4.45;;;16.80;99.90;;;;;;4964149;28;20050;-67
2023/07/21 06:35:16;;;;;;;8.20;4.40;;;16.30;99.90;;;;;;4966060;28;20493;-73
2023/07/21 06:37:42;;;;;;;7.53;4.30;;;;;;;;;;4960786;28;20141;-67
2023/07/21 06:40:09;;;;;;;6.15;3.55;;;17.40;99.90;;;;;;4964520;28;20061;-66
2023/07/21 06:42:35;;;;;;;6.20;3.20;;;16.70;99.90;;;;;;4961962;28;20403;-67
2023/07/21 06:45:01;;;;;;;6.22;3.30;;;17.30;78.90;;;;;;4958604;28;20042;-68
2023/07/21 06:47:27;;;;;;;8.32;4.00;;;16.80;82.90;;;;;;4964798;28;20039;-67
2023/07/21 06:49:53;;;;;;;6.15;3.58;;;17.40;67.60;;;;;;4960962;28;20099;-67
2023/07/21 06:52:18;;;;;;;5.97;3.33;;;17.40;28.80;;;;;;4964452;28;20093;-67
2023/07/21 06:54:44;;;;;;;8.07;3.70;;;16.80;29.00;;;;;;4963069;28;20137;-68
2023/07/21 06:57:10;;;;;;;6.88;3.13;;;16.80;52.70;;;;;;4964798;28;20134;-68
2023/07/21 06:59:39;;;;;;;5.28;2.78;;;16.80;61.90;;;;;;4964350;28;20118;-69
2023/07/21 07:02:05;;;;;;;6.90;2.72;;;17.00;56.70;;;;;;4965151;28;20035;-69
2023/07/21 07:04:31;;;;;;;5.75;2.50;;;17.90;1.00;;;;;;4963349;28;20409;-73
2023/07/21 07:06:57;;;;;;;3.95;1.75;;;17.40;1.00;;;;;;4978478;28;20035;-67
2023/07/21 07:09:23;;;;;;;6.30;2.83;;;17.10;1.00;;;;;;4963297;28;20138;-66
2023/07/21 07:11:50;;;;;;;6.57;2.97;;;17.10;1.00;;;;;;4962793;28;20142;-66
2023/07/21 07:14:16;;;;;;;4.82;2.00;;;17.00;1.00;;;;;;4965693;28;20057;-68
2023/07/21 07:16:41;;;;;;;6.55;2.83;;;17.60;1.00;;;;;;4962732;28;20050;-67
2023/07/21 07:19:07;;;;;;;5.10;2.60;;;17.40;1.00;;;;;;4964769;28;20039;-65
2023/07/21 07:21:33;;;;;;;5.18;2.58;;;17.30;1.00;;;;;;4946713;28;20529;-65
2023/07/21 07:23:58;;;;;;;4.40;2.00;;;17.40;1.00;;;;;;4962696;28;20058;-65
2023/07/21 07:26:24;;;;;;;5.13;1.80;;;17.60;1.00;;;;;;4963524;28;20043;-65
2023/07/21 07:28:50;;;;;;;5.70;2.35;;;17.10;1.00;;;;;;4963322;28;20083;-65
2023/07/21 07:31:15;;;;;;;4.32;1.98;;;18.10;1.00;;;;;;4962321;28;20045;-65
2023/07/21 07:33:42;;;;;;;5.28;1.98;;;17.20;1.00;;;;;;4966574;28;20035;-65
2023/07/21 07:36:08;;;;;;;5.07;2.20;;;17.80;1.00;;;;;;4961409;28;20516;-65
2023/07/21 07:38:34;;;;;;;5.82;2.67;;;17.40;1.00;;;;;;4969976;28;20031;-65
2023/07/21 07:41:05;;;;;;;6.05;3.03;;;18.10;1.00;;;;;;4953635;28;20089;-65
2023/07/21 07:43:32;;;;;;;6.38;2.42;;;17.00;1.00;;;;;;4963645;28;20081;-65
2023/07/21 07:45:58;;;;;;;5.95;2.50;;;18.30;1.00;;;;;;4950835;28;20777;-70
2023/07/21 07:48:24;;;;;;;5.40;2.78;;;17.50;99.90;;;;;;4966537;28;20045;-66
2023/07/21 07:50:53;;;;;;;4.65;2.00;;;17.40;99.90;;;;;;4966944;28;20047;-69
2023/07/21 07:53:20;;;;;;;4.75;2.15;;;18.30;99.90;;;;;;4969408;28;20030;-68
2023/07/21 07:55:46;;;;;;;5.40;2.00;;;18.60;99.90;;;;;;4968966;28;20046;-66
2023/07/21 07:58:12;;;;;;;4.55;1.80;;;18.70;99.90;;;;;;4967941;28;20031;-67
2023/07/21 08:00:41;;;;;;;4.90;1.77;;;18.30;99.90;;;;;;4968143;28;20047;-67
2023/07/21 08:03:09;;;;;;;5.18;2.17;;;18.60;99.90;;;;;;4966761;28;20054;-67
2023/07/21 08:05:36;;;;;;;4.40;1.92;;;17.90;99.90;;;;;;4968258;28;20208;-68
2023/07/21 08:08:03;;;;;;;7.32;3.00;;;17.50;99.90;;;;;;4965768;28;20122;-69
2023/07/21 08:10:32;;;;;;;4.90;2.35;;;17.40;99.90;;;;;;4968736;28;20042;-67
2023/07/21 08:12:59;;;;;;;6.45;3.00;;;18.00;1.00;;;;;;4950115;28;20051;-69
2023/07/21 08:15:28;;;;;;;6.72;2.63;;;17.70;1.00;;;;;;4920438;28;20062;-69
2023/07/21 08:17:54;;;;;;;5.97;2.78;;;17.10;1.00;;;;;;4956667;28;20038;-68
2023/07/21 08:20:20;;;;;;;6.95;2.75;;;17.00;1.00;;;;;;4933283;28;20041;-71
2023/07/21 08:22:52;;;;;;;6.18;2.60;;;17.60;1.00;;;;;;4980852;28;20050;-68
2023/07/21 08:25:19;;;;;;;4.95;2.63;;;17.60;1.00;;;;;;4964877;28;20537;-69
2023/07/21 08:27:45;;;;;;;5.10;2.85;;;17.60;1.00;;;;;;4964300;28;20050;-70
2023/07/21 08:30:11;;;;;;;5.20;2.80;;;17.70;1.00;;;;;;4965597;28;20034;-69
2023/07/21 08:32:38;;;;;;;5.68;2.80;;;18.00;1.00;;;;;;4966765;28;20039;-71
2023/07/21 08:35:05;;;;;;;5.10;2.60;;;18.50;1.00;;;;;;4949367;28;20047;-71
2023/07/21 08:37:32;;;;;;;5.75;2.72;;;17.60;1.00;;;;;;4948713;28;20384;-70
2023/07/21 08:39:58;;;;;;;6.60;3.15;;;18.60;1.00;;;;;;4949213;28;20082;-70
2023/07/21 08:42:27;;;;;;;5.65;3.20;;;18.20;1.00;;;;;;4964608;28;20117;-67
2023/07/21 08:44:54;;;;;;;5.75;3.13;;;18.40;1.00;;;;;;4965454;28;20694;-69
2023/07/21 08:47:20;;;;;;;7.88;5.10;;;18.50;1.00;;;;;;4964294;28;20035;-67
2023/07/21 08:49:47;;;;;;;8.10;5.15;;;18.60;1.00;;;;;;4965381;28;20117;-67
2023/07/21 08:52:13;;;;;;;7.18;4.53;;;17.60;1.00;;;;;;4966730;28;20038;-69
2023/07/21 08:54:39;;;;;;;8.02;4.70;;;18.00;1.00;;;;;;4965756;28;20038;-68
2023/07/21 08:57:05;;;;;;;9.73;5.32;;;17.80;1.00;;;;;;4964431;28;20046;-68
2023/07/21 08:59:31;;;;;;;7.00;4.63;;;18.10;1.00;;;;;;4964852;28;20073;-67
2023/07/21 09:01:58;;;;;;;7.82;4.10;;;17.90;1.00;;;;;;4962234;28;20043;-66
2023/07/21 09:04:25;;;;;;;8.25;4.68;;;17.70;1.00;;;;;;4969450;28;20117;-65
2023/07/21 09:07:02;;;;;;;8.35;4.60;;;17.30;1.00;;;;;;4969309;28;20054;-65
2023/07/21 09:09:30;;;;;;;8.38;4.60;;;17.40;1.00;;;;;;4961467;28;20046;-64
2023/07/21 09:12:01;;;;;;;6.90;4.50;;;;;;;;;;4969208;28;20129;-64
2023/07/21 09:14:37;;;;;;;7.13;4.05;;;16.90;30.80;;;;;;4969444;28;20046;-63
2023/07/21 09:17:08;;;;;;;7.43;4.03;;;17.30;51.90;;;;;;4962822;28;20043;-64
2023/07/21 09:19:39;;;;;;;6.75;3.97;;;17.10;67.70;;;;;;4964284;28;20467;-64
2023/07/21 09:22:05;;;;;;;8.05;4.20;;;17.50;32.50;;;;;;4965846;28;20051;-64
2023/07/21 09:24:31;;;;;;;7.55;3.50;;;18.20;1.00;;;;;;4947521;28;20053;-64
2023/07/21 09:27:16;;;;;;;5.82;2.80;;;17.50;1.00;;;;;;4969496;28;20043;-63
2023/07/21 09:29:43;;;;;;;7.80;3.90;;;17.40;6.60;;;;;;4965690;28;20110;-63
2023/07/21 09:32:13;;;;;;;8.02;3.30;;;17.50;1.00;;;;;;4961839;28;20041;-63
2023/07/21 09:35:12;;;;;;;7.53;3.40;;;18.20;1.00;;;;;;4947007;28;20583;-62
2023/07/21 09:37:38;;;;;;;6.15;2.70;;;17.40;1.00;;;;;;4953029;28;20819;-63
2023/07/21 09:40:10;;;;;;;5.97;3.28;;;18.30;99.90;;;;;;4979394;28;20080;-64
2023/07/21 09:42:37;;;;;;;6.97;2.90;;;18.90;99.90;;;;;;4965024;28;20043;-64
2023/07/21 09:45:03;;;;;;;6.32;3.08;;;18.00;99.90;;;;;;4964729;28;20136;-62
2023/07/21 09:47:29;;;;;;;5.80;2.92;;;18.60;99.90;;;;;;4965177;28;20039;-61
2023/07/21 09:49:57;;;;;;;7.00;3.45;;;18.20;99.90;;;;;;4964906;28;20386;-61
2023/07/21 09:52:24;;;;;;;6.72;3.97;;;18.70;99.90;;;;;;4964530;28;20034;-62
2023/07/21 09:55:13;;;;;;;7.45;3.47;;;19.10;99.90;;;;;;4964658;28;20527;-63
2023/07/21 09:57:45;;;;;;;6.40;3.53;;;18.60;99.90;;;;;;4965111;28;20424;-64
2023/07/21 10:00:13;;;;;;;6.25;3.53;;;18.60;99.90;;;;;;4964510;28;20097;-64
2023/07/21 10:02:46;;;;;;;7.28;3.45;;;19.50;99.90;;;;;;4965257;28;20524;-63
2023/07/21 10:05:13;;;;;;;6.23;2.70;;;19.30;99.90;;;;;;4964995;28;20038;-64
2023/07/21 10:07:46;;;;;;;6.22;3.30;;;19.10;99.90;;;;;;4964509;28;20046;-66
2023/07/21 10:10:12;;;;;;;5.53;3.30;;;19.20;99.90;;;;;;4961828;28;20081;-65
2023/07/21 10:12:49;;;;;;;5.03;2.90;;;19.50;99.90;;;;;;4963117;28;20050;-66
2023/07/21 10:15:21;;;;;;;5.03;2.30;;;19.80;99.90;;;;;;4964951;28;20113;-65
2023/07/21 10:18:07;;;;;;;4.03;1.90;;;19.40;99.90;;;;;;4962557;28;20043;-66
2023/07/21 10:20:44;;;;;;;4.53;2.17;;;19.60;99.90;;;;;;4964053;28;20126;-63
2023/07/21 10:23:11;;;;;;;4.93;2.08;;;19.80;10.10;;;;;;4964182;28;20540;-65
2023/07/21 10:25:58;;;;;;;4.80;1.90;;;19.30;45.70;;;;;;4964449;28;20144;-65
2023/07/21 10:28:30;;;;;;;6.15;2.20;;;19.40;1.00;;;;;;4962746;28;20101;-65
2023/07/21 10:31:24;;;;;;;4.90;2.13;;;19.70;99.90;;;;;;4963750;28;20138;-66
2023/07/21 10:34:05;;;;;;;6.28;2.28;;;19.70;99.90;;;;;;4960354;28;20057;-65
2023/07/21 10:36:56;;;;;;;5.47;2.28;;;19.50;1.00;;;;;;4960004;28;20046;-65
2023/07/21 10:39:27;;;;;;;7.38;3.08;;;19.50;99.90;;;;;;4966313;28;20046;-65
2023/07/21 10:41:58;;;;;;;6.05;2.80;;;19.60;1.00;;;;;;4962770;28;20038;-65
2023/07/21 10:44:30;;;;;;;5.93;3.03;;;19.50;11.00;;;;;;4966834;28;20551;-66
2023/07/21 10:46:56;;;;;;;5.78;3.25;;;19.20;58.30;;;;;;4961219;28;20058;-66
2023/07/21 10:49:22;;;;;;;5.55;2.97;;;;;;;;;;4969882;28;20039;-66
2023/07/21 10:51:49;;;;;;;6.80;3.10;;;18.90;99.90;;;;;;4969774;28;20126;-65
2023/07/21 10:54:16;;;;;;;5.70;2.70;;;19.00;99.90;;;;;;4968964;28;20057;-66
2023/07/21 10:56:44;;;;;;;6.57;3.33;;;18.40;1.00;;;;;;4969291;28;20122;-66
2023/07/21 10:59:11;;;;;;;6.65;3.45;;;18.90;99.90;;;;;;4966928;28;20042;-66
2023/07/21 11:01:41;;;;;;;7.82;3.42;;;18.40;99.90;;;;;;4967156;28;20492;-66
2023/07/21 11:04:07;;;;;;;7.13;3.40;;;19.30;1.00;;;;;;4969188;28;20039;-66
2023/07/21 11:06:39;;;;;;;8.10;3.78;;;19.60;1.00;;;;;;4961023;28;20114;-66
2023/07/21 11:09:04;;;;;;;7.78;4.13;;;19.50;99.90;;;;;;4969004;28;20566;-66
2023/07/21 11:11:30;;;;;;;7.45;4.03;;;19.30;99.90;;;;;;4969480;28;20046;-66
2023/07/21 11:13:56;;;;;;;7.97;3.88;;;18.90;99.90;;;;;;4969243;28;20416;-66
2023/07/21 11:16:21;;;;;;;5.70;3.20;;;18.90;1.00;;;;;;4969004;28;20038;-66
2023/07/21 11:18:47;;;;;;;7.00;3.65;;;18.80;1.00;;;;;;4960140;28;20049;-68
2023/07/21 11:21:13;;;;;;;6.30;3.05;;;17.90;94.10;;;;;;4962738;28;20146;-66
2023/07/21 11:23:38;;;;;;;7.53;3.67;;;18.10;99.90;;;;;;4965650;28;20050;-67
2023/07/21 11:26:11;;;;;;;7.90;3.50;;;17.90;99.90;;;;;;4964679;28;21304;-67
2023/07/21 11:28:41;;;;;;;8.43;3.60;;;18.00;1.00;;;;;;4964510;28;20509;-69
2023/07/21 11:31:15;;;;;;;9.18;3.50;;;18.00;1.00;;;;;;4946269;28;20050;-67
2023/07/21 11:33:47;;;;;;;7.45;3.53;;;17.80;18.80;;;;;;4966686;28;20194;-68
2023/07/21 11:36:13;;;;;;;8.30;3.80;;;17.60;54.40;;;;;;4963527;28;20077;-67
2023/07/21 11:38:39;;;;;;;8.60;3.47;;;17.70;91.00;;;;;;4963994;28;20589;-67
2023/07/21 11:41:07;;;;;;;11.23;3.40;;;17.70;90.90;;;;;;4960102;28;20074;-67
2023/07/21 11:43:47;;;;;;;8.77;3.40;;;17.60;99.20;;;;;;4965471;28;20065;-67
2023/07/21 11:46:23;;;;;;;11.02;4.03;;;18.10;96.10;;;;;;4967162;28;20043;-65
2023/07/21 11:48:51;;;;;;;8.60;3.85;;;18.20;99.90;;;;;;4963534;28;20051;-62
2023/07/21 11:51:16;;;;;;;9.77;4.03;;;17.60;99.90;;;;;;4965995;28;20034;-65
2023/07/21 11:53:47;;;;;;;10.23;4.53;;;17.50;99.90;;;;;;4967454;28;20141;-64
2023/07/21 11:56:14;;;;;;;11.98;4.68;;;17.60;99.90;;;;;;4966403;28;20034;-64
2023/07/21 11:58:41;;;;;;;10.45;4.68;;;17.00;99.90;;;;;;4965962;28;20130;-65
2023/07/21 12:01:07;;;;;;;9.65;4.80;;;17.30;99.90;;;;;;4964998;28;20324;-67
2023/07/21 12:03:36;;;;;;;11.73;3.90;;;17.00;99.90;;;;;;4963318;28;20416;-66
2023/07/21 12:06:03;;;;;;;9.75;4.43;;;17.30;99.90;;;;;;4964179;28;20105;-69
2023/07/21 12:08:30;;;;;;;9.40;4.10;;;16.80;99.90;;;;;;4964962;28;20601;-69
2023/07/21 12:10:59;;;;;;;6.97;3.20;;;17.80;99.90;;;;;;4965194;28;20338;-72
2023/07/21 12:13:24;;;;;;;7.35;3.55;;;17.10;99.90;;;;;;4978039;28;20034;-71
2023/07/21 12:15:52;;;;;;;7.75;4.38;;;;;;;;;;4965941;28;20105;-71
2023/07/21 12:18:18;;;;;;;7.40;3.55;;;16.60;99.90;;;;;;4964591;28;20081;-69
2023/07/21 12:20:44;;;;;;;8.57;3.97;;;16.00;99.90;;;;;;4964837;28;20058;-70
2023/07/21 12:23:10;;;;;;;9.25;3.72;;;15.20;1.00;;;;;;4964825;28;20125;-68
2023/07/21 12:25:36;;;;;;;8.10;4.40;;;15.40;1.00;;;;;;4965592;28;20461;-66
2023/07/21 12:28:04;;;;;;;7.10;3.72;;;15.80;1.00;;;;;;4965089;28;20054;-64
2023/07/21 12:30:29;;;;;;;6.75;3.58;;;16.00;1.00;;;;;;4963750;28;20097;-63
2023/07/21 12:32:55;;;;;;;5.75;2.88;;;15.40;1.00;;;;;;4965517;28;20047;-62
2023/07/21 12:35:21;;;;;;;6.68;2.80;;;16.00;1.00;;;;;;4961622;28;20087;-61
2023/07/21 12:37:46;;;;;;;5.22;2.30;;;15.30;1.00;;;;;;4963470;28;20673;-61
2023/07/21 12:40:13;;;;;;;6.20;2.63;;;;;;;;;;4962949;28;20039;-61
2023/07/21 12:42:40;;;;;;;5.47;2.53;;;14.90;1.00;;;;;;4964466;28;20053;-61
2023/07/21 12:45:06;;;;;;;6.07;2.90;;;15.50;1.00;;;;;;4963080;28;20046;-62
2023/07/21 12:47:32;;;;;;;7.15;2.60;;;15.80;1.00;;;;;;4968335;28;20041;-62
2023/07/21 12:49:58;;;;;;;8.05;2.38;;;14.80;1.00;;;;;;4963163;28;20039;-62
2023/07/21 12:52:23;;;;;;;6.13;2.85;;;15.00;16.30;;;;;;4959833;28;20457;-61
2023/07/21 12:54:49;;;;;;;8.43;3.05;;;14.70;1.00;;;;;;4964316;28;20501;-62